Bookmark and Share
Track history (hours):
 

Sea Drift

More information available from US FCC via Universal Licensing System and Coast Guard Vessel Documentation Center.

Last reported at 2014-Apr-19 06:07 UTC. Time now 2014-Apr-24 21:54 UTC.
Position N 29°28' W 094°51'.

Length 23 m; draft 3 m.

Type: Towing. MMSI: 366998080.

NotesDate/timePositionNaut miles runAvg speedWind from/ knotsBaromVisibWave heightAir tempDewpointWater temp
2014-Apr-19 06:07N 29°28' W 094°51'5 8.1
2014-Apr-19 05:33N 29°32' W 094°54'8 8.0
2014-Apr-19 04:33N 29°39' W 094°58'6 6.3
2014-Apr-19 03:32N 29°44' W 095°03'3 1.1
2014-Apr-19 00:32N 29°47' W 095°04'2 0.9
2014-Apr-18 22:30N 29°46' W 095°05'1 0.6
2014-Apr-18 21:33N 29°46' W 095°05'0 0.2
2014-Apr-18 19:32N 29°46' W 095°05'4 4.5
2014-Apr-18 18:33N 29°43' W 095°01'5 5.2
2014-Apr-18 17:33N 29°38' W 094°58'7 7.1
2014-Apr-18 16:33N 29°32' W 094°54'8 8.1
2014-Apr-18 15:33N 29°25' W 094°49'  
2014-Apr-16 03:29N 29°33' W 094°54'7 7.4
2014-Apr-16 02:33N 29°39' W 094°58'6 6.2
2014-Apr-16 01:31N 29°44' W 095°03'4 1.6
2014-Apr-15 23:14N 29°47' W 095°04'2 0.1
2014-Apr-14 20:31N 29°46' W 095°05'0 0.0
2014-Apr-14 11:33N 29°46' W 095°06'2 0.1
2014-Apr-13 22:28N 29°47' W 095°04'3 3.5
2014-Apr-13 21:33N 29°44' W 095°03'8 7.6
2014-Apr-13 20:33N 29°38' W 094°58'8 8.2
2014-Apr-13 19:33N 29°31' W 094°53'18 0.6
2014-Apr-12 13:09N 29°46' W 095°06'1 0.3
2014-Apr-12 11:23N 29°46' W 095°05'0 0.1
2014-Apr-12 09:04N 29°46' W 095°05'1 0.6
2014-Apr-12 08:04N 29°47' W 095°05'2 3.6
2014-Apr-12 07:33N 29°45' W 095°04'5 5.3
2014-Apr-12 06:33N 29°41' W 094°59'6 5.7
2014-Apr-12 05:32N 29°36' W 094°57'7 6.2
2014-Apr-12 04:28N 29°30' W 094°53'3 0.1
2014-Apr-10 05:24N 29°33' W 094°55'6 7.1
2014-Apr-10 04:33N 29°38' W 094°58'7 5.8
2014-Apr-10 03:21N 29°44' W 095°03'3 3.2
2014-Apr-10 02:20N 29°47' W 095°04'0 0.0
2014-Apr-10 01:15N 29°47' W 095°04'0 0.2
2014-Apr-10 00:29N 29°47' W 095°04'0 0.3
2014-Apr-09 23:16N 29°47' W 095°04'2 2.1
2014-Apr-09 22:34N 29°46' W 095°05'1 0.1
2014-Apr-09 16:33N 29°46' W 095°05'0 0.0
2014-Apr-09 15:26N 29°47' W 095°05'1 1.1
2014-Apr-09 14:22N 29°46' W 095°06'2 2.0
2014-Apr-09 13:33N 29°45' W 095°04'5 5.4
2014-Apr-09 12:33N 29°42' W 094°59'6 6.1
2014-Apr-09 11:32N 29°36' W 094°57'6 6.4
2014-Apr-09 10:33N 29°31' W 094°53'  

Dump ship's entire track history

sailing weather and tide predictions

Sea Drift — WDC2818 — position and weather